createdAt,value
2022-09-26T00:00:29.530Z,1.20
2022-09-26T00:01:29.907Z,1.10
2022-09-26T00:02:29.575Z,0.90
2022-09-26T00:03:29.382Z,1.00
2022-09-26T00:04:32.862Z,1.10
2022-09-26T00:05:29.387Z,1.30
2022-09-26T00:06:29.298Z,1.20
2022-09-26T00:07:29.296Z,1.20
2022-09-26T00:08:29.280Z,1.20
2022-09-26T00:09:29.416Z,0.90
2022-09-26T00:10:29.664Z,1.00
2022-09-26T00:11:29.410Z,1.10
2022-09-26T00:12:29.715Z,1.00
2022-09-26T00:13:29.260Z,1.00
2022-09-26T00:14:29.318Z,1.10
2022-09-26T00:15:29.410Z,1.00
2022-09-26T00:16:29.664Z,1.00
2022-09-26T00:17:29.374Z,1.20
2022-09-26T00:18:29.256Z,1.10
2022-09-26T00:19:29.395Z,1.00
2022-09-26T00:20:29.358Z,1.10
2022-09-26T00:21:29.174Z,1.20
2022-09-26T00:22:29.264Z,1.00
2022-09-26T00:23:29.308Z,0.90
2022-09-26T00:24:29.333Z,1.10
2022-09-26T00:25:29.429Z,1.00
2022-09-26T00:26:29.337Z,1.10
2022-09-26T00:27:29.182Z,1.20
2022-09-26T00:28:29.074Z,1.00
2022-09-26T00:29:29.176Z,0.90
2022-09-26T00:30:29.058Z,1.00
2022-09-26T00:31:29.081Z,1.00
2022-09-26T00:32:29.015Z,0.90
2022-09-26T00:33:29.057Z,1.00
2022-09-26T00:34:28.976Z,0.80
2022-09-26T00:35:28.938Z,1.10
2022-09-26T00:36:37.369Z,1.10
2022-09-26T00:37:28.970Z,1.20
2022-09-26T00:38:28.910Z,0.80
2022-09-26T00:39:28.942Z,0.90
2022-09-26T00:40:28.980Z,1.20
2022-09-26T00:41:28.875Z,1.10
2022-09-26T00:42:28.853Z,1.00
2022-09-26T00:43:28.897Z,1.20
2022-09-26T00:44:28.853Z,1.20
2022-09-26T00:45:28.819Z,1.00
2022-09-26T00:46:28.931Z,1.40
2022-09-26T00:47:28.806Z,1.10
2022-09-26T00:48:28.786Z,0.90
2022-09-26T00:49:28.820Z,1.30
2022-09-26T00:50:28.783Z,1.00
2022-09-26T00:51:28.754Z,1.10
2022-09-26T00:52:28.744Z,1.30
2022-09-26T00:53:28.736Z,1.30
2022-09-26T00:54:28.712Z,1.30
2022-09-26T00:55:28.746Z,1.40
2022-09-26T00:56:28.693Z,1.20
2022-09-26T00:57:28.745Z,1.00
2022-09-26T00:58:28.671Z,1.20
2022-09-26T00:59:28.668Z,1.10
2022-09-26T01:00:28.674Z,1.40
2022-09-26T01:01:28.877Z,1.30
2022-09-26T01:02:28.828Z,1.20
2022-09-26T01:03:28.618Z,1.30
2022-09-26T01:04:28.626Z,0.90
2022-09-26T01:05:28.594Z,1.20
2022-09-26T01:06:28.587Z,1.50
2022-09-26T01:07:28.647Z,1.20
2022-09-26T01:08:28.607Z,1.40
2022-09-26T01:09:28.549Z,1.30
2022-09-26T01:10:28.557Z,1.50
2022-09-26T01:11:28.536Z,1.00
2022-09-26T01:12:28.605Z,1.40
2022-09-26T01:13:28.553Z,1.30
2022-09-26T01:14:28.526Z,1.30
2022-09-26T01:15:28.483Z,1.50
2022-09-26T01:16:28.542Z,1.50
2022-09-26T01:17:28.465Z,1.30
2022-09-26T01:18:28.460Z,1.40
2022-09-26T01:19:28.482Z,1.70
2022-09-26T01:20:28.457Z,1.30
2022-09-26T01:21:28.417Z,1.40
2022-09-26T01:22:28.405Z,1.40
2022-09-26T01:23:28.423Z,1.70
2022-09-26T01:24:28.425Z,1.50
2022-09-26T01:25:28.451Z,1.40
2022-09-26T01:26:28.363Z,1.40
2022-09-26T01:27:28.360Z,1.10
2022-09-26T01:28:28.339Z,1.10
2022-09-26T01:29:28.329Z,1.40
2022-09-26T01:30:28.408Z,1.50
2022-09-26T01:31:28.414Z,1.40
2022-09-26T01:32:28.292Z,1.60
2022-09-26T01:33:28.286Z,1.40
2022-09-26T01:34:28.304Z,1.20
2022-09-26T01:35:28.393Z,1.50
2022-09-26T01:36:28.263Z,1.60
2022-09-26T01:37:28.357Z,1.20
2022-09-26T01:38:28.231Z,1.30
2022-09-26T01:39:28.221Z,1.20
2022-09-26T01:40:28.260Z,1.40
2022-09-26T01:41:28.263Z,1.30
2022-09-26T01:42:28.215Z,1.30
2022-09-26T01:43:28.247Z,1.50
2022-09-26T01:44:28.156Z,1.10
2022-09-26T01:45:28.282Z,1.30
2022-09-26T01:46:28.204Z,1.50
2022-09-26T01:47:28.239Z,1.30
2022-09-26T01:48:28.451Z,1.40
2022-09-26T01:49:28.311Z,1.50
2022-09-26T01:50:28.685Z,1.40
2022-09-26T01:51:28.255Z,1.60
2022-09-26T01:52:28.205Z,1.40
2022-09-26T01:53:28.199Z,1.40
2022-09-26T01:54:28.156Z,1.50
2022-09-26T01:55:28.505Z,1.30
2022-09-26T01:56:28.433Z,1.40
2022-09-26T01:57:28.390Z,1.50
2022-09-26T01:58:28.339Z,1.90
2022-09-26T01:59:28.323Z,1.60
2022-09-26T02:00:28.266Z,1.50
2022-09-26T02:01:28.178Z,1.80
2022-09-26T02:02:28.074Z,1.80
2022-09-26T02:03:28.958Z,1.70
2022-09-26T02:04:27.944Z,1.70
2022-09-26T02:05:27.931Z,1.50
2022-09-26T02:06:27.930Z,1.60
2022-09-26T02:07:27.982Z,1.60
2022-09-26T02:08:27.918Z,1.70
2022-09-26T02:09:27.889Z,1.80
2022-09-26T02:10:27.880Z,1.80
2022-09-26T02:11:27.952Z,1.40
2022-09-26T02:12:27.916Z,1.60
2022-09-26T02:13:27.960Z,1.40
2022-09-26T02:14:27.838Z,1.60
2022-09-26T02:15:27.822Z,1.60
2022-09-26T02:16:27.898Z,1.60
2022-09-26T02:17:27.784Z,1.80
2022-09-26T02:18:27.788Z,1.90
2022-09-26T02:19:27.826Z,1.30
2022-09-26T02:20:27.810Z,1.60
2022-09-26T02:21:27.748Z,1.90
2022-09-26T02:22:27.740Z,1.80
2022-09-26T02:23:27.784Z,1.50
2022-09-26T02:24:27.753Z,1.60
2022-09-26T02:25:27.798Z,1.90
2022-09-26T02:26:27.693Z,1.50
2022-09-26T02:27:27.675Z,1.70
2022-09-26T02:28:27.697Z,1.40
2022-09-26T02:29:27.712Z,2.10
2022-09-26T02:30:27.651Z,1.70
2022-09-26T02:31:27.722Z,1.70
2022-09-26T02:32:27.629Z,1.60
2022-09-26T02:33:27.640Z,2.00
2022-09-26T02:34:27.610Z,1.70
2022-09-26T02:35:27.621Z,1.90
2022-09-26T02:36:27.607Z,1.70
2022-09-26T02:37:27.648Z,2.20
2022-09-26T02:38:27.884Z,1.70
2022-09-26T02:39:27.548Z,1.70
2022-09-26T02:40:27.614Z,1.70
2022-09-26T02:41:27.544Z,1.60
2022-09-26T02:42:29.162Z,1.70
2022-09-26T02:43:27.680Z,1.70
2022-09-26T02:44:27.503Z,1.80
2022-09-26T02:45:27.509Z,1.70
2022-09-26T02:46:27.476Z,1.70
2022-09-26T02:47:27.465Z,1.90
2022-09-26T02:48:28.099Z,1.50
2022-09-26T02:49:27.528Z,1.50
2022-09-26T02:50:27.421Z,2.00
2022-09-26T02:51:27.415Z,1.90
2022-09-26T02:52:27.403Z,1.70
2022-09-26T02:53:27.397Z,2.00
2022-09-26T02:54:27.418Z,2.00
2022-09-26T02:55:28.036Z,1.70
2022-09-26T02:56:27.843Z,1.60
2022-09-26T02:57:27.837Z,1.90
2022-09-26T02:58:27.337Z,2.00
2022-09-26T02:59:27.409Z,1.60
2022-09-26T03:00:27.362Z,1.70
2022-09-26T03:01:27.403Z,1.80
2022-09-26T03:02:27.287Z,2.00
2022-09-26T03:03:27.324Z,1.80
2022-09-26T03:04:27.358Z,2.10
2022-09-26T03:05:27.262Z,2.40
2022-09-26T03:06:27.305Z,2.00
2022-09-26T03:07:27.319Z,1.90
2022-09-26T03:08:27.247Z,2.10
2022-09-26T03:09:27.204Z,2.30
2022-09-26T03:10:27.204Z,2.40
2022-09-26T03:11:27.272Z,1.90
2022-09-26T03:12:27.216Z,2.30
2022-09-26T03:13:27.265Z,2.00
2022-09-26T03:14:27.151Z,1.70
2022-09-26T03:15:27.173Z,2.00
2022-09-26T03:16:27.195Z,2.20
2022-09-26T03:17:27.127Z,2.40
2022-09-26T03:18:27.814Z,2.20
2022-09-26T03:19:27.191Z,2.00
2022-09-26T03:20:27.109Z,2.10
2022-09-26T03:21:27.070Z,2.50
2022-09-26T03:22:27.068Z,2.30
2022-09-26T03:23:27.071Z,2.10
2022-09-26T03:24:27.081Z,2.20
2022-09-26T03:25:27.113Z,2.00
2022-09-26T03:26:27.049Z,2.10
2022-09-26T03:27:27.025Z,2.30
2022-09-26T03:28:27.008Z,2.50
2022-09-26T03:29:26.993Z,2.20
2022-09-26T03:30:27.018Z,2.60
2022-09-26T03:31:27.189Z,2.10
2022-09-26T03:32:27.042Z,2.30
2022-09-26T03:33:26.956Z,2.20
2022-09-26T03:34:26.952Z,2.30
2022-09-26T03:35:26.921Z,2.20
2022-09-26T03:36:26.942Z,2.50
2022-09-26T03:37:26.976Z,2.70
2022-09-26T03:38:26.897Z,2.40
2022-09-26T03:39:26.866Z,2.20
2022-09-26T03:40:26.963Z,2.80
2022-09-26T03:41:26.881Z,2.50
2022-09-26T03:42:26.861Z,2.70
2022-09-26T03:43:26.948Z,2.30
2022-09-26T03:44:26.920Z,2.60
2022-09-26T03:45:26.888Z,3.20
2022-09-26T03:46:26.804Z,2.40
2022-09-26T03:47:26.797Z,2.90
2022-09-26T03:48:26.812Z,2.60
2022-09-26T03:49:26.866Z,2.80
2022-09-26T03:50:27.594Z,3.00
2022-09-26T03:51:26.751Z,2.60
2022-09-26T03:52:26.785Z,2.70
2022-09-26T03:53:26.733Z,2.80
2022-09-26T03:54:26.713Z,3.10
2022-09-26T03:55:27.695Z,2.60
2022-09-26T03:56:26.775Z,2.80
2022-09-26T03:57:26.711Z,3.30
2022-09-26T03:58:26.661Z,2.70
2022-09-26T03:59:26.656Z,3.50
2022-09-26T04:00:26.659Z,3.20
2022-09-26T04:01:26.781Z,3.00
2022-09-26T04:02:26.682Z,2.70
2022-09-26T04:03:26.623Z,3.20
2022-09-26T04:04:26.592Z,3.10
2022-09-26T04:05:26.612Z,3.20
2022-09-26T04:06:26.576Z,3.10
2022-09-26T04:07:26.651Z,3.30
2022-09-26T04:08:26.599Z,3.40
2022-09-26T04:09:26.543Z,3.00
2022-09-26T04:10:26.545Z,3.40
2022-09-26T04:11:26.531Z,3.50
2022-09-26T04:12:26.556Z,3.70
2022-09-26T04:13:50.130Z,3.40
2022-09-26T04:14:26.516Z,3.20
2022-09-26T04:15:26.486Z,3.50
2022-09-26T04:16:26.494Z,3.60
2022-09-26T04:17:26.471Z,3.80
2022-09-26T04:18:26.504Z,3.80
2022-09-26T04:19:26.525Z,3.80
2022-09-26T04:20:27.580Z,3.90
2022-09-26T04:21:26.513Z,3.70
2022-09-26T04:22:26.419Z,4.10
2022-09-26T04:23:26.482Z,4.20
2022-09-26T04:24:26.450Z,4.20
2022-09-26T04:25:26.528Z,4.40
2022-09-26T04:26:26.366Z,4.10
2022-09-26T04:27:26.363Z,4.10
2022-09-26T04:28:26.340Z,4.00
2022-09-26T04:29:26.329Z,4.80
2022-09-26T04:30:26.402Z,4.50
2022-09-26T04:31:26.446Z,4.40
2022-09-26T04:32:26.347Z,4.60
2022-09-26T04:33:26.301Z,4.80
2022-09-26T04:34:27.580Z,4.80
2022-09-26T04:35:26.356Z,5.30
2022-09-26T04:36:26.296Z,5.10
2022-09-26T04:37:26.338Z,5.50
2022-09-26T04:38:26.227Z,5.20
2022-09-26T04:39:26.218Z,5.40
2022-09-26T04:40:26.287Z,5.00
2022-09-26T04:41:26.272Z,5.90
2022-09-26T04:42:26.393Z,6.20
2022-09-26T04:43:26.250Z,5.90
2022-09-26T04:44:26.227Z,5.80
2022-09-26T04:45:26.280Z,5.80
2022-09-26T04:46:30.465Z,6.20
2022-09-26T04:47:26.253Z,5.80
2022-09-26T04:48:26.123Z,6.00
2022-09-26T04:49:26.202Z,6.40
2022-09-26T04:50:26.112Z,6.10
2022-09-26T04:51:26.081Z,6.00
2022-09-26T04:52:26.244Z,6.40
2022-09-26T04:53:26.229Z,6.00
2022-09-26T04:54:26.250Z,6.40
2022-09-26T04:55:26.436Z,6.20
2022-09-26T04:56:26.297Z,6.60
2022-09-26T04:57:31.671Z,6.70
2022-09-26T04:58:26.793Z,6.30
2022-09-26T04:59:26.312Z,6.40
2022-09-26T05:00:26.208Z,6.60
2022-09-26T05:01:27.541Z,7.50
2022-09-26T05:02:26.211Z,6.50
2022-09-26T05:03:26.456Z,7.50
2022-09-26T05:04:27.787Z,7.60
2022-09-26T05:05:26.333Z,7.40
2022-09-26T05:06:26.395Z,7.50
2022-09-26T05:07:26.702Z,7.60
2022-09-26T05:08:26.195Z,7.10
2022-09-26T05:09:26.367Z,7.60
2022-09-26T05:10:26.019Z,8.10
2022-09-26T05:11:26.213Z,7.60
2022-09-26T05:12:26.049Z,8.20
2022-09-26T05:13:26.476Z,7.80
2022-09-26T05:14:26.155Z,7.90
2022-09-26T05:15:26.111Z,7.40
2022-09-26T05:16:26.063Z,7.40
2022-09-26T05:17:26.137Z,7.20
2022-09-26T05:18:26.684Z,7.50
2022-09-26T05:19:26.308Z,7.10
2022-09-26T05:20:26.191Z,7.30
2022-09-26T05:21:26.095Z,7.40
2022-09-26T05:22:25.879Z,7.30
2022-09-26T05:23:25.764Z,7.00
2022-09-26T05:24:25.811Z,7.30
2022-09-26T05:25:26.393Z,6.80
2022-09-26T05:26:25.722Z,7.60
2022-09-26T05:27:29.667Z,6.80
2022-09-26T05:28:25.752Z,7.40
2022-09-26T05:29:32.191Z,7.30
2022-09-26T05:30:32.804Z,7.80
2022-09-26T05:31:31.922Z,7.10
2022-09-26T05:32:25.816Z,7.10
2022-09-26T05:33:25.622Z,7.20
2022-09-26T05:34:25.683Z,6.60
2022-09-26T05:35:25.662Z,6.50
2022-09-26T05:36:25.772Z,7.30
2022-09-26T05:37:25.578Z,6.40
2022-09-26T05:38:25.614Z,6.70
2022-09-26T05:39:25.564Z,6.70
2022-09-26T05:40:25.706Z,7.50
2022-09-26T05:41:25.819Z,6.80
2022-09-26T05:42:25.709Z,7.40
2022-09-26T05:43:25.580Z,6.90
2022-09-26T05:44:25.790Z,6.30
2022-09-26T05:45:25.774Z,6.90
2022-09-26T05:46:25.568Z,6.70
2022-09-26T05:47:25.470Z,6.70
2022-09-26T05:48:26.291Z,6.40
2022-09-26T05:49:25.594Z,6.10
2022-09-26T05:50:25.716Z,7.10
2022-09-26T05:51:25.626Z,7.20
2022-09-26T05:52:25.536Z,6.90
2022-09-26T05:53:25.392Z,6.80
2022-09-26T05:54:25.700Z,6.60
2022-09-26T05:55:25.515Z,6.40
2022-09-26T05:56:25.577Z,6.90
2022-09-26T05:57:25.368Z,6.80
2022-09-26T05:58:25.628Z,6.60
2022-09-26T05:59:25.527Z,6.40
2022-09-26T06:00:25.426Z,6.40
2022-09-26T06:01:25.640Z,6.50
2022-09-26T06:02:25.397Z,6.90
2022-09-26T06:03:25.270Z,6.60
2022-09-26T06:04:25.294Z,6.80
2022-09-26T06:05:27.227Z,7.00
2022-09-26T06:06:25.408Z,6.80
2022-09-26T06:07:25.392Z,7.00
2022-09-26T06:08:25.366Z,7.10
2022-09-26T06:09:25.208Z,7.30
2022-09-26T06:10:25.576Z,7.10
2022-09-26T06:11:25.422Z,7.50
2022-09-26T06:12:25.395Z,6.90
2022-09-26T06:13:25.325Z,7.00
2022-09-26T06:14:25.183Z,6.50
2022-09-26T06:15:25.204Z,7.30
2022-09-26T06:16:25.308Z,8.00
2022-09-26T06:17:25.334Z,7.00
2022-09-26T06:18:25.319Z,6.90
2022-09-26T06:19:25.213Z,7.00
2022-09-26T06:20:25.124Z,6.10
2022-09-26T06:21:25.260Z,7.10
2022-09-26T06:22:25.069Z,6.60
2022-09-26T06:23:25.102Z,5.90
2022-09-26T06:24:25.624Z,6.20
2022-09-26T06:25:25.047Z,6.70
2022-09-26T06:26:25.321Z,6.20
2022-09-26T06:27:25.448Z,6.10
2022-09-26T06:28:25.359Z,5.70
2022-09-26T06:29:25.412Z,5.90
2022-09-26T06:30:25.552Z,6.20
2022-09-26T06:31:25.448Z,6.00
2022-09-26T06:32:25.282Z,6.00
2022-09-26T06:33:28.695Z,5.90
2022-09-26T06:34:24.959Z,6.00
2022-09-26T06:35:24.984Z,5.90
2022-09-26T06:36:25.256Z,6.20
2022-09-26T06:37:25.138Z,6.70
2022-09-26T06:38:25.073Z,6.30
2022-09-26T06:39:25.286Z,6.00
2022-09-26T06:40:25.452Z,6.50
2022-09-26T06:41:25.123Z,6.90
2022-09-26T06:42:25.077Z,6.30
2022-09-26T06:43:24.933Z,7.00
2022-09-26T06:44:25.021Z,7.80
2022-09-26T06:45:24.962Z,7.60
2022-09-26T06:46:25.078Z,7.20
2022-09-26T06:47:25.023Z,7.40
2022-09-26T06:48:25.039Z,6.50
2022-09-26T06:49:25.042Z,7.20
2022-09-26T06:50:24.946Z,7.30
2022-09-26T06:51:24.860Z,7.10
2022-09-26T06:52:24.927Z,7.30
2022-09-26T06:53:24.850Z,7.40
2022-09-26T06:54:24.869Z,7.10
2022-09-26T06:55:24.705Z,7.10
2022-09-26T06:56:24.826Z,7.90
2022-09-26T06:57:24.884Z,6.60
2022-09-26T06:58:24.875Z,7.00
2022-09-26T06:59:24.756Z,6.40
2022-09-26T07:00:24.833Z,7.20
2022-09-26T07:01:24.859Z,7.50
2022-09-26T07:02:24.873Z,7.70
2022-09-26T07:03:25.014Z,7.60
2022-09-26T07:04:24.629Z,7.00
2022-09-26T07:05:24.664Z,7.30
2022-09-26T07:06:24.652Z,7.50
2022-09-26T07:07:24.583Z,7.20
2022-09-26T07:08:43.269Z,6.60
2022-09-26T07:09:24.585Z,6.70
2022-09-26T07:10:25.315Z,7.10
2022-09-26T07:11:56.603Z,6.70
2022-09-26T07:12:24.651Z,6.60
2022-09-26T07:13:24.539Z,6.30
2022-09-26T07:14:24.824Z,5.90
2022-09-26T07:15:24.494Z,6.70
2022-09-26T07:16:24.562Z,6.90
2022-09-26T07:17:24.581Z,6.20
2022-09-26T07:18:24.493Z,6.10
2022-09-26T07:19:24.435Z,6.30
2022-09-26T07:20:24.478Z,6.60
2022-09-26T07:21:24.459Z,6.50
2022-09-26T07:22:24.470Z,5.70
2022-09-26T07:23:24.429Z,6.40
2022-09-26T07:24:24.480Z,6.80
2022-09-26T07:25:24.393Z,6.90
2022-09-26T07:26:24.403Z,7.10
2022-09-26T07:27:24.394Z,6.80
2022-09-26T07:28:24.460Z,7.50
2022-09-26T07:29:25.258Z,6.80
2022-09-26T07:30:24.555Z,7.30
2022-09-26T07:31:24.385Z,6.70
2022-09-26T07:32:24.315Z,7.20
2022-09-26T07:33:25.233Z,7.40
2022-09-26T07:34:24.276Z,6.80
2022-09-26T07:35:24.261Z,7.60
2022-09-26T07:36:24.428Z,7.20
2022-09-26T07:37:24.389Z,7.50
2022-09-26T07:38:24.221Z,7.50
2022-09-26T07:39:24.235Z,8.20
2022-09-26T07:40:24.348Z,7.40
2022-09-26T07:41:24.186Z,7.90
2022-09-26T07:42:24.325Z,7.60
2022-09-26T07:43:42.780Z,7.60
2022-09-26T07:45:29.505Z,7.30
2022-09-26T07:46:24.215Z,7.80
2022-09-26T07:47:24.320Z,7.50
2022-09-26T07:48:24.417Z,7.60
2022-09-26T07:49:24.319Z,7.90
2022-09-26T07:50:24.186Z,8.00
2022-09-26T07:51:24.206Z,7.80
2022-09-26T07:52:24.539Z,8.50
2022-09-26T07:53:24.087Z,8.60
2022-09-26T07:54:24.102Z,7.80
2022-09-26T07:55:24.126Z,7.90
2022-09-26T07:56:24.024Z,7.50
2022-09-26T07:57:24.106Z,7.50
2022-09-26T07:58:24.701Z,7.70
2022-09-26T07:59:24.195Z,7.90
2022-09-26T08:00:24.169Z,8.40
2022-09-26T08:01:24.148Z,7.80
2022-09-26T08:02:24.382Z,8.10
2022-09-26T08:03:24.263Z,7.90
2022-09-26T08:04:24.145Z,7.40
2022-09-26T08:05:24.042Z,7.70
2022-09-26T08:06:24.730Z,8.00
2022-09-26T08:07:23.929Z,7.10
2022-09-26T08:08:23.960Z,7.60
2022-09-26T08:09:23.885Z,7.20
2022-09-26T08:10:23.913Z,6.60
2022-09-26T08:11:23.936Z,7.30
2022-09-26T08:12:23.963Z,7.70
2022-09-26T08:13:23.931Z,8.00
2022-09-26T08:14:23.867Z,8.00
2022-09-26T08:15:23.903Z,7.20
2022-09-26T08:16:23.930Z,7.30
2022-09-26T08:17:23.840Z,6.60
2022-09-26T08:18:23.867Z,7.60
2022-09-26T08:19:26.745Z,7.40
2022-09-26T08:20:26.368Z,7.80
2022-09-26T08:21:23.792Z,7.50
2022-09-26T08:22:23.771Z,7.40
2022-09-26T08:23:23.729Z,7.30
2022-09-26T08:24:24.705Z,7.40
2022-09-26T08:25:23.738Z,7.30
2022-09-26T08:26:24.079Z,7.20
2022-09-26T08:27:23.715Z,7.30
2022-09-26T08:28:23.729Z,7.00
2022-09-26T08:29:23.699Z,7.30
2022-09-26T08:30:23.695Z,7.30
2022-09-26T08:31:24.026Z,6.70
2022-09-26T08:32:23.690Z,8.10
2022-09-26T08:33:23.671Z,7.80
2022-09-26T08:34:25.622Z,6.80
2022-09-26T08:35:23.579Z,7.20
2022-09-26T08:36:23.630Z,6.60
2022-09-26T08:37:23.623Z,6.30
2022-09-26T08:38:23.572Z,6.10
2022-09-26T08:39:23.566Z,7.50
2022-09-26T08:40:23.847Z,6.70
2022-09-26T08:41:23.504Z,7.20
2022-09-26T08:42:23.714Z,6.40
2022-09-26T08:43:23.517Z,6.70
2022-09-26T08:44:23.587Z,6.40
2022-09-26T08:45:23.534Z,6.30
2022-09-26T08:46:23.500Z,6.70
2022-09-26T08:47:23.530Z,6.10
2022-09-26T08:48:24.437Z,5.90
2022-09-26T08:49:23.452Z,6.40
2022-09-26T08:50:23.558Z,5.80
2022-09-26T08:51:28.903Z,5.30
2022-09-26T08:52:23.421Z,5.10
2022-09-26T08:53:23.502Z,6.10
2022-09-26T08:54:23.366Z,5.70
2022-09-26T08:55:23.369Z,5.40
2022-09-26T08:56:23.387Z,5.80
2022-09-26T08:57:23.335Z,5.90
2022-09-26T08:58:28.545Z,4.70
2022-09-26T08:59:23.352Z,4.90
2022-09-26T09:00:23.343Z,5.50
2022-09-26T09:01:23.452Z,4.90
2022-09-26T09:02:23.325Z,4.90
2022-09-26T09:03:23.268Z,5.70
2022-09-26T09:04:23.324Z,5.00
2022-09-26T09:05:23.321Z,5.00
2022-09-26T09:06:23.222Z,5.10
2022-09-26T09:07:23.260Z,4.70
2022-09-26T09:08:23.245Z,4.40
2022-09-26T09:09:23.226Z,4.80
2022-09-26T09:10:23.172Z,4.90
2022-09-26T09:11:23.235Z,5.00
2022-09-26T09:12:24.934Z,4.30
2022-09-26T09:13:23.167Z,4.60
2022-09-26T09:14:23.282Z,5.00
2022-09-26T09:15:26.085Z,4.00
2022-09-26T09:16:23.270Z,4.30
2022-09-26T09:17:23.165Z,4.30
2022-09-26T09:18:23.093Z,4.10
2022-09-26T09:19:23.134Z,4.30
2022-09-26T09:20:23.077Z,4.20
2022-09-26T09:21:23.082Z,4.30
2022-09-26T09:22:23.082Z,4.10
2022-09-26T09:23:23.089Z,4.60
2022-09-26T09:24:23.060Z,4.10
2022-09-26T09:25:23.093Z,4.30
2022-09-26T09:27:53.619Z,4.20
2022-09-26T09:28:22.997Z,4.20
2022-09-26T09:29:23.033Z,4.00
2022-09-26T09:30:22.953Z,4.70
2022-09-26T09:31:23.008Z,4.50
2022-09-26T09:32:22.946Z,5.10
2022-09-26T09:33:22.933Z,4.80
2022-09-26T09:34:22.898Z,4.10
2022-09-26T09:35:22.948Z,4.10
2022-09-26T09:36:22.890Z,4.60
2022-09-26T09:37:22.899Z,4.00
2022-09-26T09:38:23.257Z,4.00
2022-09-26T09:39:22.871Z,5.00
2022-09-26T09:40:23.330Z,4.50
2022-09-26T09:41:22.962Z,4.00
2022-09-26T09:42:24.802Z,4.00
2022-09-26T09:43:22.849Z,4.10
2022-09-26T09:44:22.878Z,3.80
2022-09-26T09:45:22.935Z,4.60
2022-09-26T09:46:22.845Z,4.30
2022-09-26T09:47:22.832Z,4.30
2022-09-26T09:48:22.789Z,4.50
2022-09-26T09:49:22.992Z,4.40
2022-09-26T09:50:22.729Z,4.70
2022-09-26T09:51:22.963Z,4.10
2022-09-26T09:52:22.856Z,4.70
2022-09-26T09:53:22.810Z,4.60
2022-09-26T09:54:22.710Z,4.30
2022-09-26T09:55:22.763Z,3.90
2022-09-26T09:56:22.783Z,4.50
2022-09-26T09:57:22.756Z,4.50
2022-09-26T09:58:22.660Z,4.30
2022-09-26T09:59:22.791Z,4.70
2022-09-26T10:00:22.790Z,4.50
2022-09-26T10:01:22.648Z,4.20
2022-09-26T10:02:23.363Z,4.30
2022-09-26T10:03:22.890Z,4.30
2022-09-26T10:04:22.782Z,4.70
2022-09-26T10:05:22.989Z,4.80
2022-09-26T10:06:45.565Z,4.60
2022-09-26T10:07:22.937Z,4.20
2022-09-26T10:08:22.627Z,4.40
2022-09-26T10:09:39.659Z,4.40
2022-09-26T10:10:22.539Z,4.60
2022-09-26T10:11:22.628Z,4.40
2022-09-26T10:12:22.582Z,4.90
2022-09-26T10:13:22.735Z,4.30
2022-09-26T10:14:22.529Z,4.10
2022-09-26T10:15:22.474Z,4.20
2022-09-26T10:16:22.567Z,4.00
2022-09-26T10:17:22.527Z,4.20
2022-09-26T10:18:25.300Z,4.60
2022-09-26T10:19:22.479Z,4.30
2022-09-26T10:20:22.462Z,4.70
2022-09-26T10:21:22.421Z,3.80
2022-09-26T10:22:22.418Z,3.90
2022-09-26T10:23:22.525Z,4.20
2022-09-26T10:24:22.498Z,4.20
2022-09-26T10:25:22.452Z,4.30
2022-09-26T10:26:22.483Z,4.10
2022-09-26T10:27:22.522Z,4.00
2022-09-26T10:28:22.326Z,4.10
2022-09-26T10:29:22.373Z,4.10
2022-09-26T10:30:22.375Z,4.40
2022-09-26T10:31:22.468Z,4.10
2022-09-26T10:32:22.618Z,4.00
2022-09-26T10:33:23.279Z,4.30
2022-09-26T10:34:23.289Z,4.60
2022-09-26T10:35:22.440Z,4.40
2022-09-26T10:36:22.262Z,4.40
2022-09-26T10:37:22.420Z,4.10
2022-09-26T10:38:22.554Z,3.80
2022-09-26T10:39:22.175Z,4.20
2022-09-26T10:40:22.489Z,3.80
2022-09-26T10:41:22.680Z,5.00
2022-09-26T10:42:22.262Z,4.30
2022-09-26T10:43:22.268Z,3.60
2022-09-26T10:44:22.305Z,3.70
2022-09-26T10:45:22.136Z,4.20
2022-09-26T10:46:22.328Z,4.10
2022-09-26T10:47:22.343Z,4.20
2022-09-26T10:48:22.184Z,3.80
2022-09-26T10:49:22.088Z,3.60
2022-09-26T10:50:22.067Z,3.90
2022-09-26T10:51:22.052Z,3.90
2022-09-26T10:52:22.050Z,3.90
2022-09-26T10:53:22.695Z,3.60
2022-09-26T10:54:22.205Z,3.90
2022-09-26T10:55:22.032Z,3.90
2022-09-26T10:56:22.011Z,3.60
2022-09-26T10:57:21.999Z,3.90
2022-09-26T10:58:22.198Z,4.10
2022-09-26T10:59:22.020Z,3.70
2022-09-26T11:00:21.962Z,3.40
2022-09-26T11:01:22.082Z,3.90
2022-09-26T11:02:22.045Z,3.80
2022-09-26T11:03:22.027Z,3.60
2022-09-26T11:04:22.795Z,3.90
2022-09-26T11:05:21.953Z,3.90
2022-09-26T11:06:24.078Z,3.80
2022-09-26T11:07:21.870Z,3.50
2022-09-26T11:08:21.861Z,3.90
2022-09-26T11:09:21.843Z,4.60
2022-09-26T11:10:21.867Z,3.90
2022-09-26T11:11:21.963Z,3.80
2022-09-26T11:12:21.810Z,3.80
2022-09-26T11:13:22.014Z,3.60
2022-09-26T11:14:25.932Z,4.10
2022-09-26T11:15:21.781Z,4.60
2022-09-26T11:16:21.888Z,5.10
2022-09-26T11:17:21.840Z,4.30
2022-09-26T11:18:21.764Z,4.70
2022-09-26T11:19:21.723Z,4.20
2022-09-26T11:20:21.724Z,4.10
2022-09-26T11:21:28.953Z,3.80
2022-09-26T11:22:21.734Z,4.20
2022-09-26T11:23:21.749Z,4.60
2022-09-26T11:24:21.692Z,4.90
2022-09-26T11:25:21.660Z,5.00
2022-09-26T11:26:21.645Z,5.20
2022-09-26T11:27:21.677Z,5.50
2022-09-26T11:28:21.651Z,4.80
2022-09-26T11:29:21.707Z,4.70
2022-09-26T11:30:21.658Z,4.80
2022-09-26T11:31:21.887Z,5.20
2022-09-26T11:32:21.751Z,5.00
2022-09-26T11:33:21.834Z,5.30
2022-09-26T11:34:22.231Z,5.60
2022-09-26T11:35:21.626Z,4.90
2022-09-26T11:36:21.556Z,5.00
2022-09-26T11:37:21.736Z,5.40
2022-09-26T11:38:21.522Z,5.20
2022-09-26T11:39:22.188Z,5.40
2022-09-26T11:40:22.327Z,5.30
2022-09-26T11:41:22.279Z,5.30
2022-09-26T11:42:21.499Z,5.70
2022-09-26T11:43:21.475Z,5.60
2022-09-26T11:44:21.521Z,5.60
2022-09-26T11:45:21.454Z,6.30
2022-09-26T11:46:21.517Z,5.80
2022-09-26T11:47:21.458Z,5.00
2022-09-26T11:48:21.421Z,6.40
2022-09-26T11:49:21.496Z,6.00
2022-09-26T11:50:21.403Z,5.80
2022-09-26T11:51:21.400Z,5.80
2022-09-26T11:52:21.361Z,6.00
2022-09-26T11:53:21.402Z,6.10
2022-09-26T11:54:21.421Z,5.70
2022-09-26T11:55:21.393Z,6.40
2022-09-26T11:56:21.420Z,7.00
2022-09-26T11:57:21.337Z,6.80
2022-09-26T11:58:21.377Z,6.10
2022-09-26T11:59:21.438Z,5.60
2022-09-26T12:00:21.265Z,6.60
2022-09-26T12:01:21.338Z,6.10
2022-09-26T12:02:21.438Z,6.60
2022-09-26T12:03:21.439Z,6.70
2022-09-26T12:04:22.078Z,6.80
2022-09-26T12:05:26.116Z,7.10
2022-09-26T12:06:21.245Z,6.20
2022-09-26T12:07:21.193Z,7.20
2022-09-26T12:08:21.567Z,7.20
2022-09-26T12:09:21.266Z,7.50
2022-09-26T12:10:21.179Z,7.50
2022-09-26T12:11:21.199Z,7.20
2022-09-26T12:12:21.193Z,7.40
2022-09-26T12:13:21.189Z,6.70
2022-09-26T12:14:21.125Z,7.70
2022-09-26T12:15:21.868Z,6.80
2022-09-26T12:16:21.181Z,7.10
2022-09-26T12:17:21.208Z,6.20
2022-09-26T12:18:21.090Z,6.20
2022-09-26T12:19:21.078Z,6.70
2022-09-26T12:20:21.074Z,6.50
2022-09-26T12:21:21.626Z,6.40
2022-09-26T12:22:21.032Z,6.50
2022-09-26T12:23:21.275Z,6.80
2022-09-26T12:24:21.076Z,6.90
2022-09-26T12:25:21.009Z,6.30
2022-09-26T12:26:22.697Z,6.40
2022-09-26T12:27:21.726Z,6.20
2022-09-26T12:28:20.987Z,6.60
2022-09-26T12:29:27.599Z,6.00
2022-09-26T12:30:21.613Z,6.10
2022-09-26T12:31:21.095Z,5.70
2022-09-26T12:32:21.008Z,5.90
2022-09-26T12:33:20.896Z,5.40
2022-09-26T12:34:20.898Z,5.80
2022-09-26T12:35:20.919Z,5.30
2022-09-26T12:36:20.888Z,5.70
2022-09-26T12:37:20.874Z,5.30
2022-09-26T12:38:20.871Z,5.50
2022-09-26T12:39:20.844Z,5.50
2022-09-26T12:40:20.966Z,5.10
2022-09-26T12:41:20.879Z,4.70
2022-09-26T12:42:20.842Z,4.80
2022-09-26T12:43:20.950Z,4.40
2022-09-26T12:44:20.775Z,4.60
2022-09-26T12:45:20.775Z,4.70
2022-09-26T12:46:20.845Z,4.90
2022-09-26T12:47:20.809Z,4.70
2022-09-26T12:48:20.745Z,4.30
2022-09-26T12:49:21.740Z,4.40
2022-09-26T12:50:20.863Z,5.00
2022-09-26T12:51:20.734Z,5.00
2022-09-26T12:52:23.845Z,4.30
2022-09-26T12:53:21.332Z,4.60
2022-09-26T12:54:20.774Z,4.50
2022-09-26T12:55:20.804Z,4.40
2022-09-26T12:56:21.777Z,4.60
2022-09-26T12:57:20.921Z,4.90
2022-09-26T12:58:20.699Z,4.10
2022-09-26T12:59:20.778Z,4.60
2022-09-26T13:00:21.110Z,4.30
2022-09-26T13:01:20.795Z,4.30
2022-09-26T13:02:20.803Z,4.40
2022-09-26T13:03:20.745Z,4.50
2022-09-26T13:04:20.688Z,4.90
2022-09-26T13:05:21.614Z,4.20
2022-09-26T13:06:20.621Z,4.20
2022-09-26T13:07:21.005Z,3.80
2022-09-26T13:08:20.717Z,3.90
2022-09-26T13:09:20.580Z,3.60
2022-09-26T13:10:20.501Z,4.00
2022-09-26T13:11:20.605Z,4.20
2022-09-26T13:12:20.638Z,4.30
2022-09-26T13:13:20.669Z,3.90
2022-09-26T13:14:20.563Z,4.00
2022-09-26T13:15:20.619Z,3.70
2022-09-26T13:16:20.682Z,3.50
2022-09-26T13:17:21.313Z,3.40
2022-09-26T13:18:24.373Z,3.70
2022-09-26T13:19:20.600Z,3.20
2022-09-26T13:20:20.667Z,3.30